createdAt,value
2018-11-25T00:04:30.316Z,67.15
2018-11-25T00:09:33.655Z,67.23
2018-11-25T00:14:36.990Z,67.23
2018-11-25T01:46:04.051Z,67.92
2018-11-25T01:51:07.409Z,67.92
2018-11-25T01:56:10.748Z,68.21
2018-11-25T03:33:15.594Z,69.34
2018-11-25T03:38:19.699Z,69.07
2018-11-25T03:43:23.047Z,68.77
2018-11-25T04:46:03.034Z,70.31
2018-11-25T04:51:06.375Z,70.70
2018-11-25T04:56:09.725Z,70.82
2018-11-25T06:04:29.543Z,71.00
2018-11-25T06:09:32.886Z,71.18
2018-11-25T06:14:36.225Z,71.11
2018-11-25T06:19:40.349Z,71.20
2018-11-25T06:24:44.443Z,71.70
2018-11-25T06:29:47.786Z,72.12
2018-11-25T06:34:51.874Z,71.81
2018-11-25T06:39:55.213Z,71.61
2018-11-25T06:44:58.563Z,71.22
2018-11-25T06:50:01.906Z,71.52
2018-11-25T06:55:05.252Z,71.51
2018-11-25T07:00:08.589Z,71.46
2018-11-25T07:05:11.942Z,71.67
2018-11-25T07:10:15.286Z,71.96
2018-11-25T07:15:18.642Z,71.62
2018-11-25T07:20:21.999Z,71.50
2018-11-25T07:25:25.356Z,71.20
2018-11-25T07:30:29.465Z,70.65
2018-11-25T07:35:32.811Z,70.55
2018-11-25T07:40:36.158Z,71.14
2018-11-25T07:45:39.492Z,70.64
2018-11-25T07:50:42.857Z,70.96
2018-11-25T07:55:46.195Z,71.25
2018-11-25T08:00:49.524Z,70.89
2018-11-25T08:05:52.873Z,70.79
2018-11-25T08:10:56.977Z,70.99
2018-11-25T08:16:00.320Z,70.68
2018-11-25T08:21:04.421Z,70.38
2018-11-25T08:26:07.776Z,70.06
2018-11-25T08:31:11.126Z,71.01
2018-11-25T08:36:14.483Z,72.22
2018-11-25T08:41:17.831Z,72.89
2018-11-25T08:46:21.186Z,72.45
2018-11-25T08:51:24.550Z,72.11
2018-11-25T08:56:27.931Z,71.85
2018-11-25T09:01:31.335Z,72.01
2018-11-25T09:06:34.720Z,71.32
2018-11-25T09:11:38.076Z,71.14
2018-11-25T09:16:41.416Z,70.77
2018-11-25T09:21:44.778Z,70.79
2018-11-25T09:26:48.107Z,70.67
2018-11-25T09:31:51.443Z,70.83
2018-11-25T09:36:54.796Z,70.99
2018-11-25T09:41:58.125Z,70.86
2018-11-25T09:47:01.466Z,71.20
2018-11-25T09:52:08.169Z,70.71
2018-11-25T09:57:11.493Z,70.76
2018-11-25T10:02:17.592Z,70.73
2018-11-25T10:07:20.940Z,70.69
2018-11-25T10:12:24.276Z,71.75
2018-11-25T10:17:28.389Z,71.61
2018-11-25T10:22:31.737Z,71.16
2018-11-25T10:27:35.086Z,71.75
2018-11-25T10:32:38.469Z,71.49
2018-11-25T10:37:42.731Z,72.01
2018-11-25T10:42:46.075Z,71.83
2018-11-25T10:47:49.434Z,72.28
2018-11-25T10:52:52.761Z,72.95
2018-11-25T10:57:56.115Z,72.11
2018-11-25T11:02:59.465Z,72.22
2018-11-25T11:08:03.885Z,72.28
2018-11-25T11:13:08.017Z,72.53
2018-11-25T11:18:11.368Z,72.03
2018-11-25T11:23:14.703Z,72.67
2018-11-25T11:28:18.050Z,72.57
2018-11-25T11:33:22.035Z,72.50
2018-11-25T11:38:24.762Z,73.04
2018-11-25T11:43:28.121Z,72.92
2018-11-25T11:48:31.509Z,72.86
2018-11-25T11:53:34.845Z,73.21
2018-11-25T11:58:38.186Z,73.19
2018-11-25T12:03:41.521Z,72.81
2018-11-25T12:08:48.500Z,73.53
2018-11-25T12:13:51.865Z,73.39
2018-11-25T12:18:55.213Z,73.20
2018-11-25T12:23:58.567Z,73.44
2018-11-25T12:29:03.922Z,73.94
2018-11-25T12:34:07.285Z,73.81
2018-11-25T12:39:11.947Z,73.30
2018-11-25T12:44:15.322Z,74.17
2018-11-25T12:49:19.493Z,73.81
2018-11-25T12:54:22.896Z,73.87
2018-11-25T12:59:26.380Z,73.82
2018-11-25T13:04:29.743Z,73.72
2018-11-25T13:09:33.082Z,74.23
2018-11-25T13:14:36.424Z,73.78
2018-11-25T13:19:40.529Z,74.01
2018-11-25T13:24:43.860Z,74.10
2018-11-25T13:29:47.960Z,74.12
2018-11-25T13:34:51.325Z,73.86
2018-11-25T13:39:54.674Z,74.11
2018-11-25T13:44:57.237Z,73.96
2018-11-25T13:50:00.604Z,74.60
2018-11-25T13:55:03.974Z,74.48
2018-11-25T14:00:07.328Z,74.27
2018-11-25T14:05:10.679Z,74.78
2018-11-25T14:10:14.024Z,75.07
2018-11-25T14:15:17.360Z,74.96
2018-11-25T14:20:20.720Z,74.19
2018-11-25T14:25:24.069Z,74.48
2018-11-25T14:30:27.412Z,74.74
2018-11-25T14:35:30.767Z,74.84
2018-11-25T14:40:34.153Z,75.04
2018-11-25T14:45:37.508Z,75.03
2018-11-25T14:50:40.853Z,74.93
2018-11-25T14:55:44.192Z,75.01
2018-11-25T15:00:48.307Z,75.02
2018-11-25T15:05:51.659Z,74.62
2018-11-25T15:10:55.025Z,74.44
2018-11-25T15:15:58.372Z,74.22
2018-11-25T15:21:01.724Z,74.21
2018-11-25T15:26:05.145Z,73.86
2018-11-25T15:31:08.502Z,74.02
2018-11-25T15:36:11.854Z,74.00
2018-11-25T15:41:15.221Z,73.79
2018-11-25T15:46:18.568Z,74.12
2018-11-25T15:51:21.935Z,74.30
2018-11-25T15:56:26.080Z,74.63
2018-11-25T16:01:29.436Z,74.29
2018-11-25T16:06:32.810Z,74.77
2018-11-25T16:11:36.233Z,75.05
2018-11-25T16:16:40.367Z,74.22
2018-11-25T16:21:43.722Z,73.74
2018-11-25T16:26:47.061Z,73.60
2018-11-25T16:31:50.765Z,73.23
2018-11-25T16:36:54.115Z,73.18
2018-11-25T16:41:57.465Z,73.14
2018-11-25T16:47:00.805Z,73.47
2018-11-25T16:52:04.140Z,72.92
2018-11-25T16:57:07.490Z,72.73
2018-11-25T17:02:10.837Z,73.89
2018-11-25T17:07:14.203Z,73.52
2018-11-25T17:12:18.348Z,73.97
2018-11-25T17:17:21.707Z,73.67
2018-11-25T17:22:25.054Z,73.62
2018-11-25T17:27:29.170Z,73.31
2018-11-25T17:32:32.514Z,74.04
2018-11-25T17:37:35.948Z,73.52
2018-11-25T17:47:55.521Z,73.10
2018-11-25T17:52:58.881Z,73.69
2018-11-25T17:58:02.250Z,73.61
2018-11-25T18:03:05.674Z,73.60
2018-11-25T18:08:09.053Z,73.28
2018-11-25T18:13:12.406Z,73.08
2018-11-25T18:18:16.820Z,73.14
2018-11-25T18:23:20.441Z,72.85
2018-11-25T18:28:23.790Z,72.50
2018-11-25T18:33:27.900Z,73.82
2018-11-25T18:38:31.236Z,73.72
2018-11-25T18:43:35.349Z,73.30
2018-11-25T18:48:38.967Z,73.55
2018-11-25T18:53:42.308Z,73.15
2018-11-25T18:58:45.655Z,73.23
2018-11-25T19:03:49.001Z,72.71
2018-11-25T19:08:52.384Z,72.69
2018-11-25T19:13:55.741Z,71.74
2018-11-25T19:18:59.932Z,71.79
2018-11-25T19:24:03.301Z,71.90
2018-11-25T19:29:07.402Z,71.82
2018-11-25T19:34:17.682Z,72.26
2018-11-25T19:39:25.196Z,72.36
2018-11-25T19:44:29.559Z,72.40
2018-11-25T19:49:33.064Z,72.19
2018-11-25T19:54:36.458Z,72.32
2018-11-25T19:59:39.817Z,72.12
2018-11-25T20:04:43.335Z,72.14
2018-11-25T20:09:47.545Z,72.41
2018-11-25T20:14:50.922Z,72.85
2018-11-25T20:19:54.288Z,72.92
2018-11-25T20:24:57.627Z,73.15
2018-11-25T20:30:00.981Z,73.25
2018-11-25T20:35:05.171Z,73.14
2018-11-25T20:40:08.498Z,73.46
2018-11-25T20:45:11.858Z,73.33
2018-11-25T20:50:15.205Z,73.74
2018-11-25T20:55:18.555Z,74.10
2018-11-25T21:00:22.046Z,73.74
2018-11-25T21:05:25.442Z,74.32
2018-11-25T21:10:29.484Z,74.70
2018-11-25T21:15:33.599Z,74.29
2018-11-25T21:20:36.950Z,73.66
2018-11-25T21:25:40.282Z,73.89
2018-11-25T21:30:44.401Z,73.42
2018-11-25T21:35:47.754Z,73.59
2018-11-25T21:40:51.126Z,73.34
2018-11-25T21:45:54.520Z,73.25
2018-11-25T21:50:57.856Z,73.30
2018-11-25T21:56:01.211Z,73.21
2018-11-25T22:01:05.962Z,73.06
2018-11-25T22:06:09.302Z,73.14
2018-11-25T22:11:12.704Z,73.01
2018-11-25T22:16:16.047Z,73.24
2018-11-25T22:21:19.408Z,73.41
2018-11-25T22:26:22.773Z,73.46
2018-11-25T22:31:26.123Z,73.16
2018-11-25T22:36:30.250Z,73.03
2018-11-25T22:41:34.354Z,72.98
2018-11-25T22:46:37.704Z,73.13
2018-11-25T22:51:41.913Z,73.06
2018-11-25T22:56:46.032Z,73.01
2018-11-25T23:01:49.376Z,72.97
2018-11-25T23:06:52.717Z,73.11
2018-11-25T23:11:56.066Z,72.83
2018-11-25T23:16:59.392Z,72.79
2018-11-25T23:22:03.518Z,72.74
2018-11-25T23:27:06.855Z,73.01
2018-11-25T23:32:10.954Z,72.79
2018-11-25T23:37:14.299Z,73.31
2018-11-25T23:42:18.420Z,73.27
2018-11-25T23:47:22.519Z,73.20
2018-11-25T23:52:25.869Z,73.17
2018-11-25T23:57:29.984Z,73.46
